Time,TemperatureF,DewpointF,PressureIn,WindDirection,WindDirectionDegrees,WindSpeedMPH,WindSpeedGustMPH,Humidity,HourlyPrecipIn,Conditions,Clouds,dailyrainin,SoftwareType,DateUTC
2013-05-15 00:22:00,60.0,41.0,29.98,SSE,147,0.0,1.0,50,0.00,,,0.00,,2013-05-15 07:22:00,
2013-05-15 00:32:00,60.0,41.0,29.98,SSE,147,0.0,1.0,50,0.00,,,0.00,,2013-05-15 07:32:00,
2013-05-15 00:42:00,60.0,41.0,29.98,SSE,147,0.0,1.0,50,0.00,,,0.00,,2013-05-15 07:42:00,
2013-05-15 00:52:00,60.0,41.0,29.98,SSE,147,0.0,1.0,50,0.00,,,0.00,,2013-05-15 07:52:00,
2013-05-15 01:02:00,60.0,41.0,29.98,SSE,147,0.0,1.0,50,0.00,,,0.00,,2013-05-15 08:02:00,
2013-05-15 02:22:00,57.0,40.0,29.96,SE,146,0.0,0.0,53,0.00,,,0.00,,2013-05-15 09:22:00,
2013-05-15 02:33:00,57.0,40.0,29.96,SE,146,0.0,0.0,53,0.00,,,0.00,,2013-05-15 09:33:00,
2013-05-15 02:42:00,57.0,40.0,29.96,SE,146,0.0,0.0,53,0.00,,,0.00,,2013-05-15 09:42:00,
2013-05-15 02:53:00,57.0,40.0,29.96,SE,146,0.0,0.0,53,0.00,,,0.00,,2013-05-15 09:53:00,
2013-05-15 03:02:00,57.0,40.0,29.96,SE,146,0.0,0.0,53,0.00,,,0.00,,2013-05-15 10:02:00,
2013-05-15 04:28:00,55.0,40.0,29.97,SE,139,0.0,1.0,56,0.00,,,0.00,,2013-05-15 11:28:00,
2013-05-15 04:38:00,55.0,40.0,29.97,SE,139,0.0,1.0,56,0.00,,,0.00,,2013-05-15 11:38:00,
2013-05-15 04:57:00,55.0,40.0,29.97,SE,139,0.0,1.0,56,0.00,,,0.00,,2013-05-15 11:57:00,
2013-05-15 06:37:00,54.0,39.0,29.98,SE,136,0.0,0.0,56,0.00,,,0.00,,2013-05-15 13:37:00,
2013-05-15 06:48:00,54.0,39.0,29.98,SE,136,0.0,0.0,56,0.00,,,0.00,,2013-05-15 13:48:00,
2013-05-15 06:57:00,54.0,39.0,29.98,SE,136,0.0,0.0,56,0.00,,,0.00,,2013-05-15 13:57:00,
2013-05-15 07:02:00,54.0,39.0,29.98,SE,136,0.0,0.0,56,0.00,,,0.00,,2013-05-15 14:02:00,
2013-05-15 08:29:00,53.0,44.0,30.01,SE,139,0.0,0.0,71,0.00,,,0.00,,2013-05-15 15:29:00,
2013-05-15 08:39:00,53.0,44.0,30.01,SE,139,0.0,0.0,71,0.00,,,0.00,,2013-05-15 15:39:00,
2013-05-15 08:48:00,53.0,44.0,30.01,SE,139,0.0,0.0,71,0.00,,,0.00,,2013-05-15 15:48:00,
2013-05-15 08:57:00,53.0,44.0,30.01,SE,139,0.0,0.0,71,0.00,,,0.00,,2013-05-15 15:57:00,
2013-05-15 10:28:00,61.0,42.0,30.02,SSE,166,0.0,1.0,50,0.00,,,0.00,,2013-05-15 17:28:00,
2013-05-15 10:47:00,61.0,42.0,30.02,SSE,166,0.0,1.0,50,0.00,,,0.00,,2013-05-15 17:47:00,
2013-05-15 10:57:00,61.0,42.0,30.02,SSE,166,0.0,1.0,50,0.00,,,0.00,,2013-05-15 17:57:00,
2013-05-15 12:31:00,70.0,45.0,30.03,NNE,27,0.0,1.0,40,0.00,,,0.00,,2013-05-15 19:31:00,
2013-05-15 12:39:00,70.0,45.0,30.03,NNE,27,0.0,1.0,40,0.00,,,0.00,,2013-05-15 19:39:00,
2013-05-15 12:47:00,70.0,45.0,30.03,NNE,27,0.0,1.0,40,0.00,,,0.00,,2013-05-15 19:47:00,
2013-05-15 12:55:00,70.0,45.0,30.03,NNE,27,0.0,1.0,40,0.00,,,0.00,,2013-05-15 19:55:00,
2013-05-15 13:02:00,70.0,45.0,30.03,NNE,27,0.0,1.0,40,0.00,,,0.00,,2013-05-15 20:02:00,
2013-05-15 14:28:00,74.0,46.0,30.02,SE,133,1.0,4.0,37,0.00,,,0.00,,2013-05-15 21:28:00,
2013-05-15 14:41:00,74.0,46.0,30.02,SE,133,1.0,4.0,37,0.00,,,0.00,,2013-05-15 21:41:00,
2013-05-15 14:51:00,74.0,46.0,30.02,SE,133,1.0,4.0,37,0.00,,,0.00,,2013-05-15 21:51:00,
2013-05-15 14:57:00,74.0,46.0,30.02,SE,133,1.0,4.0,37,0.00,,,0.00,,2013-05-15 21:57:00,
2013-05-15 15:03:00,74.0,46.0,30.02,SE,133,1.0,4.0,37,0.00,,,0.00,,2013-05-15 22:03:00,
2013-05-15 16:30:00,77.0,50.0,30.01,SSE,163,0.0,1.0,39,0.00,,,0.00,,2013-05-15 23:30:00,
2013-05-15 16:39:00,77.0,50.0,30.01,SSE,163,0.0,1.0,39,0.00,,,0.00,,2013-05-15 23:39:00,
2013-05-15 16:50:00,77.0,50.0,30.01,SSE,163,0.0,1.0,39,0.00,,,0.00,,2013-05-15 23:50:00,
2013-05-15 16:57:00,77.0,50.0,30.01,SSE,163,0.0,1.0,39,0.00,,,0.00,,2013-05-15 23:57:00,
2013-05-15 18:30:00,69.0,50.0,30.01,SSE,162,1.0,2.0,50,0.00,,,0.00,,2013-05-16 01:30:00,
2013-05-15 18:39:00,69.0,50.0,30.01,SSE,162,1.0,2.0,50,0.00,,,0.00,,2013-05-16 01:39:00,
2013-05-15 18:49:00,69.0,50.0,30.01,SSE,162,1.0,2.0,50,0.00,,,0.00,,2013-05-16 01:49:00,
2013-05-15 18:56:00,69.0,50.0,30.01,SSE,162,1.0,2.0,50,0.00,,,0.00,,2013-05-16 01:56:00,
2013-05-15 19:03:00,69.0,50.0,30.01,SSE,162,1.0,2.0,50,0.00,,,0.00,,2013-05-16 02:03:00,
2013-05-15 20:27:00,64.0,47.0,30.01,ESE,123,0.0,1.0,55,0.00,,,0.00,,2013-05-16 03:27:00,
2013-05-15 20:46:00,64.0,47.0,30.01,ESE,123,0.0,1.0,55,0.00,,,0.00,,2013-05-16 03:46:00,
2013-05-15 20:56:00,64.0,47.0,30.01,ESE,123,0.0,1.0,55,0.00,,,0.00,,2013-05-16 03:56:00,
2013-05-15 21:02:00,64.0,47.0,30.01,ESE,123,0.0,1.0,55,0.00,,,0.00,,2013-05-16 04:02:00,
2013-05-15 22:22:00,59.0,48.0,30.02,SE,138,0.0,2.0,67,0.00,,,0.00,,2013-05-16 05:22:00,
2013-05-15 22:32:00,59.0,48.0,30.02,SE,138,0.0,2.0,67,0.00,,,0.00,,2013-05-16 05:32:00,
2013-05-15 22:42:00,59.0,48.0,30.02,SE,138,0.0,2.0,67,0.00,,,0.00,,2013-05-16 05:42:00,
2013-05-15 22:52:00,59.0,48.0,30.02,SE,138,0.0,2.0,67,0.00,,,0.00,,2013-05-16 05:52:00,
2013-05-15 23:01:00,59.0,48.0,30.02,SE,138,0.0,2.0,67,0.00,,,0.00,,2013-05-16 06:01:00,